Time;durP1;ratioP1;P1;durP2;ratioP2;P2;SDS_P1;SDS_P2;PMS_P1;PMS_P2;Temp;Humidity;BMP_temperature;BMP_pressure;BME280_temperature;BME280_humidity;BME280_pressure;Samples;Min_cycle;Max_cycle;Signal;HPM_P1;HPM_P2
2023/04/07 00:01:20;;;;;;;10.20;6.60;;;6.80;94.50;;;;;;5074063;28;20438;-63
2023/04/07 00:03:47;;;;;;;15.47;7.07;;;6.80;94.60;;;;;;5073659;28;20443;-63
2023/04/07 00:06:14;;;;;;;11.37;8.90;;;6.80;94.70;;;;;;5073903;28;20446;-63
2023/04/07 00:08:41;;;;;;;10.30;8.63;;;6.80;95.00;;;;;;5074151;28;20451;-62
2023/04/07 00:11:10;;;;;;;10.50;6.30;;;6.80;95.30;;;;;;5073606;28;20439;-62
2023/04/07 00:13:36;;;;;;;12.43;7.37;;;6.70;95.30;;;;;;5073780;28;20427;-63
2023/04/07 00:16:03;;;;;;;11.60;7.13;;;6.70;95.50;;;;;;5073969;28;20467;-65
2023/04/07 00:18:31;;;;;;;9.93;7.53;;;6.70;95.70;;;;;;5074136;28;20478;-64
2023/04/07 00:20:57;;;;;;;11.90;7.37;;;6.70;95.90;;;;;;5073787;28;20474;-63
2023/04/07 00:23:24;;;;;;;9.60;6.70;;;6.70;95.70;;;;;;5074022;28;20436;-62
2023/04/07 00:25:51;;;;;;;10.63;6.73;;;6.70;95.90;;;;;;5073679;28;20485;-65
2023/04/07 00:28:19;;;;;;;8.10;5.93;;;6.70;95.60;;;;;;5073940;28;20443;-63
2023/04/07 00:30:46;;;;;;;12.90;6.83;;;6.60;95.70;;;;;;5077847;28;20419;-63
2023/04/07 00:33:13;;;;;;;10.10;6.70;;;6.70;95.90;;;;;;5078097;28;20443;-64
2023/04/07 00:35:40;;;;;;;15.97;7.00;;;6.60;95.70;;;;;;5077278;28;20497;-63
2023/04/07 00:38:07;;;;;;;6.23;5.63;;;6.60;96.00;;;;;;5077418;28;20514;-64
2023/04/07 00:40:34;;;;;;;8.27;6.27;;;6.60;95.90;;;;;;5077286;28;20467;-63
2023/04/07 00:43:01;;;;;;;7.83;6.60;;;6.60;95.90;;;;;;5077341;28;20475;-63
2023/04/07 00:45:29;;;;;;;7.30;5.10;;;6.60;95.70;;;;;;5077345;28;20491;-63
2023/04/07 00:47:57;;;;;;;12.87;6.43;;;6.60;95.50;;;;;;5077411;28;20471;-63
2023/04/07 00:50:24;;;;;;;12.27;6.47;;;6.60;95.50;;;;;;5076969;28;20447;-63
2023/04/07 00:52:51;;;;;;;8.77;5.40;;;6.60;95.40;;;;;;5076612;28;20439;-62
2023/04/07 00:55:18;;;;;;;10.00;6.07;;;6.60;95.10;;;;;;5076967;28;20467;-62
2023/04/07 00:57:46;;;;;;;8.60;5.23;;;6.60;94.80;;;;;;5077413;28;20482;-63
2023/04/07 01:00:14;;;;;;;7.17;5.47;;;6.50;94.80;;;;;;5077311;28;20531;-62
2023/04/07 01:02:51;;;;;;;9.93;5.87;;;6.50;94.60;;;;;;5076914;28;20850;-62
2023/04/07 01:05:24;;;;;;;11.03;5.60;;;6.50;94.50;;;;;;5076759;28;20466;-61
2023/04/07 01:07:59;;;;;;;6.60;5.20;;;6.60;94.30;;;;;;5076846;28;20505;-63
2023/04/07 01:10:33;;;;;;;11.93;6.37;;;6.50;94.20;;;;;;5076496;28;20509;-63
2023/04/07 01:13:05;;;;;;;9.50;6.33;;;6.60;94.00;;;;;;5076889;28;20424;-61
2023/04/07 01:15:35;;;;;;;9.57;4.60;;;6.50;93.80;;;;;;5077090;28;20506;-63
2023/04/07 01:18:10;;;;;;;7.53;5.00;;;6.50;94.10;;;;;;5076355;28;20503;-63
2023/04/07 01:20:38;;;;;;;7.37;5.20;;;6.50;93.80;;;;;;5076361;28;20474;-62
2023/04/07 01:23:07;;;;;;;9.20;5.70;;;6.50;93.90;;;;;;5076362;28;20443;-63
2023/04/07 01:25:53;;;;;;;5.43;4.33;;;6.50;93.80;;;;;;5075783;28;20940;-63
2023/04/07 01:28:41;;;;;;;7.60;5.07;;;6.50;94.00;;;;;;5076036;28;20486;-64
2023/04/07 01:31:12;;;;;;;6.90;4.63;;;6.50;93.60;;;;;;5075533;28;20478;-63
2023/04/07 01:33:43;;;;;;;7.60;5.00;;;6.50;93.80;;;;;;5075566;28;20447;-66
2023/04/07 01:36:12;;;;;;;9.63;5.80;;;6.50;93.40;;;;;;5075660;28;20467;-64
2023/04/07 01:38:39;;;;;;;6.63;4.90;;;6.50;93.60;;;;;;5075657;28;20479;-62
2023/04/07 01:41:09;;;;;;;9.23;5.20;;;6.50;93.50;;;;;;5075185;28;20479;-63
2023/04/07 01:43:37;;;;;;;14.77;5.20;;;6.50;93.50;;;;;;5074941;28;20447;-63
2023/04/07 01:46:05;;;;;;;8.73;4.90;;;6.50;93.40;;;;;;5075883;28;20500;-63
2023/04/07 01:48:35;;;;;;;5.50;4.20;;;6.50;93.60;;;;;;5075461;28;20435;-63
2023/04/07 01:51:02;;;;;;;8.77;4.87;;;6.50;93.90;;;;;;5075742;28;20470;-65
2023/04/07 01:53:31;;;;;;;6.10;5.03;;;6.50;93.50;;;;;;5075276;28;20431;-62
2023/04/07 01:55:57;;;;;;;13.83;5.70;;;6.40;93.50;;;;;;5075049;28;20499;-64
2023/04/07 01:58:24;;;;;;;9.57;6.53;;;6.40;94.30;;;;;;5074692;28;20463;-63
2023/04/07 02:00:51;;;;;;;9.07;5.00;;;6.40;96.20;;;;;;5075125;28;20490;-63
2023/04/07 02:03:23;;;;;;;9.87;4.77;;;6.40;96.00;;;;;;5074751;28;20450;-63
2023/04/07 02:05:55;;;;;;;8.23;5.03;;;6.40;95.50;;;;;;5074914;28;20471;-63
2023/04/07 02:08:26;;;;;;;8.13;4.97;;;6.40;94.60;;;;;;5074675;28;20431;-63
2023/04/07 02:10:55;;;;;;;6.73;4.33;;;6.40;94.30;;;;;;5075279;28;20509;-62
2023/04/07 02:13:23;;;;;;;7.17;4.53;;;6.40;94.60;;;;;;5075236;28;20509;-64
2023/04/07 02:15:51;;;;;;;6.50;4.60;;;6.30;94.80;;;;;;5075526;28;20454;-65
2023/04/07 02:18:23;;;;;;;12.03;5.10;;;6.30;94.50;;;;;;5076286;28;20467;-63
2023/04/07 02:20:53;;;;;;;6.50;5.20;;;6.30;94.50;;;;;;5076853;28;20447;-62
2023/04/07 02:23:20;;;;;;;13.33;5.10;;;6.30;94.60;;;;;;5077958;28;20404;-62
2023/04/07 02:25:47;;;;;;;7.10;4.53;;;6.30;94.90;;;;;;5077645;28;20428;-63
2023/04/07 02:28:14;;;;;;;5.70;4.80;;;6.20;95.00;;;;;;5077540;28;20411;-62
2023/04/07 02:30:41;;;;;;;7.50;4.47;;;6.20;95.10;;;;;;5075787;28;20443;-62
2023/04/07 02:33:08;;;;;;;7.00;4.53;;;6.20;95.20;;;;;;5076488;28;20444;-65
2023/04/07 02:35:35;;;;;;;6.37;4.70;;;6.10;95.60;;;;;;5075858;28;20454;-64
2023/04/07 02:38:03;;;;;;;6.50;4.80;;;6.10;95.70;;;;;;5075641;28;20482;-66
2023/04/07 02:40:30;;;;;;;9.20;5.57;;;6.10;95.80;;;;;;5076665;28;20446;-67
2023/04/07 02:42:57;;;;;;;9.13;4.77;;;6.00;96.10;;;;;;5076341;28;20427;-70
2023/04/07 02:45:24;;;;;;;6.60;4.40;;;6.00;96.20;;;;;;5076727;28;20454;-66
2023/04/07 02:47:51;;;;;;;9.80;4.77;;;6.00;96.70;;;;;;5077126;28;20451;-69
2023/04/07 02:50:18;;;;;;;6.53;4.23;;;6.00;96.60;;;;;;5076550;28;20438;-67
2023/04/07 02:52:44;;;;;;;9.20;5.00;;;6.00;97.00;;;;;;5076434;28;20463;-68
2023/04/07 02:55:17;;;;;;;9.93;4.77;;;6.00;97.20;;;;;;5076163;28;20439;-69
2023/04/07 02:57:44;;;;;;;18.03;5.43;;;6.00;97.30;;;;;;5075447;28;20517;-64
2023/04/07 03:00:15;;;;;;;7.10;4.50;;;6.00;97.50;;;;;;5075872;28;20442;-64
2023/04/07 03:02:42;;;;;;;6.00;5.37;;;6.10;97.40;;;;;;5075785;28;20473;-63
2023/04/07 03:05:09;;;;;;;7.10;4.73;;;6.00;97.40;;;;;;5074929;28;20452;-63
2023/04/07 03:07:36;;;;;;;7.23;5.10;;;6.00;97.40;;;;;;5074828;28;20459;-63
2023/04/07 03:10:03;;;;;;;6.13;4.10;;;6.00;97.70;;;;;;5073895;28;20439;-64
2023/04/07 03:12:31;;;;;;;7.33;4.10;;;6.00;97.80;;;;;;5073738;28;20462;-63
2023/04/07 03:14:58;;;;;;;8.63;4.40;;;6.00;98.00;;;;;;5074088;28;20446;-63
2023/04/07 03:17:25;;;;;;;16.17;3.90;;;6.10;97.60;;;;;;5073976;28;20474;-63
2023/04/07 03:19:52;;;;;;;7.30;4.83;;;6.00;97.60;;;;;;5074000;28;20473;-63
2023/04/07 03:22:19;;;;;;;8.57;5.00;;;6.00;97.70;;;;;;5073687;28;20489;-63
2023/04/07 03:24:45;;;;;;;7.93;4.90;;;6.00;97.70;;;;;;5074124;28;20466;-63
2023/04/07 03:27:12;;;;;;;10.73;5.00;;;6.00;98.10;;;;;;5073523;28;20466;-63
2023/04/07 03:29:40;;;;;;;7.67;4.23;;;6.00;98.20;;;;;;5073680;28;20448;-62
2023/04/07 03:32:07;;;;;;;10.10;4.70;;;6.10;97.70;;;;;;5073498;28;20463;-64
2023/04/07 03:34:34;;;;;;;6.37;4.90;;;6.10;97.80;;;;;;5073073;28;20458;-63
2023/04/07 03:37:01;;;;;;;9.80;4.77;;;6.10;97.80;;;;;;5072958;28;20462;-63
2023/04/07 03:39:28;;;;;;;9.70;4.83;;;6.10;98.00;;;;;;5074015;28;20467;-64
2023/04/07 03:41:55;;;;;;;7.17;4.07;;;6.10;98.40;;;;;;5072865;28;20447;-63
2023/04/07 03:44:22;;;;;;;6.23;4.07;;;6.10;98.10;;;;;;5073962;28;20428;-63
2023/04/07 03:46:52;;;;;;;6.67;4.27;;;6.10;98.60;;;;;;5075135;28;20419;-63
2023/04/07 03:49:19;;;;;;;9.23;4.77;;;6.10;98.50;;;;;;5074742;28;20446;-63
2023/04/07 03:51:46;;;;;;;10.93;5.37;;;6.10;98.60;;;;;;5074282;28;20474;-63
2023/04/07 03:54:13;;;;;;;11.53;3.70;;;6.10;98.50;;;;;;5073320;28;20466;-62
2023/04/07 03:56:40;;;;;;;6.60;4.20;;;6.10;98.50;;;;;;5073923;28;20439;-63
2023/04/07 03:59:07;;;;;;;9.83;5.03;;;6.10;98.90;;;;;;5073427;28;20490;-62
2023/04/07 04:01:34;;;;;;;12.77;5.00;;;6.20;98.80;;;;;;5073399;28;20459;-64
2023/04/07 04:04:03;;;;;;;8.27;5.90;;;6.20;98.80;;;;;;5075174;28;20474;-63
2023/04/07 04:06:30;;;;;;;8.80;4.53;;;6.20;98.70;;;;;;5077821;28;20430;-63
2023/04/07 04:08:57;;;;;;;17.70;4.90;;;6.20;98.70;;;;;;5077142;28;20436;-63
2023/04/07 04:11:23;;;;;;;6.53;4.20;;;6.10;98.70;;;;;;5077488;28;20470;-63
2023/04/07 04:13:50;;;;;;;8.60;4.67;;;6.20;98.90;;;;;;5077992;28;20455;-62
2023/04/07 04:16:20;;;;;;;6.87;5.20;;;6.20;99.00;;;;;;5077541;28;20447;-63
2023/04/07 04:18:47;;;;;;;21.73;5.30;;;6.10;98.90;;;;;;5077314;28;20483;-63
2023/04/07 04:21:15;;;;;;;16.17;5.03;;;6.10;99.30;;;;;;5076633;28;20447;-62
2023/04/07 04:23:42;;;;;;;5.07;4.57;;;6.10;99.40;;;;;;5077454;28;20459;-63
2023/04/07 04:26:09;;;;;;;9.40;4.73;;;6.10;99.30;;;;;;5076919;28;20471;-63
2023/04/07 04:28:36;;;;;;;11.63;4.90;;;6.20;99.50;;;;;;5077092;28;20467;-62
2023/04/07 04:31:03;;;;;;;7.50;4.87;;;6.20;99.70;;;;;;5077360;28;20443;-62
2023/04/07 04:33:30;;;;;;;8.37;4.67;;;6.20;99.70;;;;;;5076239;28;20467;-63
2023/04/07 04:35:57;;;;;;;8.60;6.20;;;6.20;99.70;;;;;;5076858;28;20427;-62
2023/04/07 04:38:25;;;;;;;21.23;6.17;;;6.20;99.90;;;;;;5076632;28;20498;-64
2023/04/07 04:40:52;;;;;;;11.27;6.00;;;6.20;99.70;;;;;;5075938;28;20459;-63
2023/04/07 04:43:19;;;;;;;10.13;4.97;;;6.20;99.90;;;;;;5076521;28;20462;-64
2023/04/07 04:45:46;;;;;;;6.30;5.23;;;6.20;99.90;;;;;;5076926;28;20428;-63
2023/04/07 04:48:13;;;;;;;6.73;5.13;;;6.20;99.90;;;;;;5076072;28;20459;-63
2023/04/07 04:50:39;;;;;;;16.30;5.53;;;6.20;99.90;;;;;;5076809;28;20456;-63
2023/04/07 04:53:06;;;;;;;13.63;5.97;;;6.20;99.90;;;;;;5076196;28;20526;-63
2023/04/07 04:55:35;;;;;;;9.20;4.87;;;6.20;99.90;;;;;;5076266;28;20446;-63
2023/04/07 04:58:02;;;;;;;9.33;6.40;;;6.20;99.90;;;;;;5076401;28;20444;-64
2023/04/07 05:00:29;;;;;;;11.10;5.07;;;6.20;99.90;;;;;;5076202;28;20455;-62
2023/04/07 05:02:56;;;;;;;10.13;5.50;;;6.20;99.90;;;;;;5076085;28;20435;-62
2023/04/07 05:05:22;;;;;;;11.07;5.33;;;6.20;99.90;;;;;;5076557;28;20435;-62
2023/04/07 05:07:52;;;;;;;6.07;4.60;;;6.20;99.90;;;;;;5076659;28;20443;-63
2023/04/07 05:10:19;;;;;;;5.90;5.00;;;6.30;99.90;;;;;;5076605;28;20431;-63
2023/04/07 05:12:47;;;;;;;8.13;5.07;;;6.30;99.90;;;;;;5076593;28;20430;-62
2023/04/07 05:15:14;;;;;;;6.60;5.20;;;6.30;99.90;;;;;;5076220;28;20439;-70
2023/04/07 05:17:41;;;;;;;10.93;6.23;;;6.30;99.90;;;;;;5078096;28;20507;-64
2023/04/07 05:20:10;;;;;;;6.83;4.60;;;6.40;99.90;;;;;;5076623;28;20493;-66
2023/04/07 05:22:37;;;;;;;9.60;5.40;;;6.40;99.90;;;;;;5077823;28;20448;-62
2023/04/07 05:25:05;;;;;;;7.47;5.40;;;6.40;99.90;;;;;;5077399;28;20457;-64
2023/04/07 05:27:32;;;;;;;12.17;6.97;;;6.40;99.90;;;;;;5066136;28;20473;-63
2023/04/07 05:30:00;;;;;;;10.17;5.17;;;6.40;99.90;;;;;;5076482;28;20419;-63
2023/04/07 05:32:28;;;;;;;10.73;5.13;;;6.40;99.90;;;;;;5076856;28;20475;-63
2023/04/07 05:34:55;;;;;;;9.83;5.93;;;6.30;99.90;;;;;;5075879;28;20490;-63
2023/04/07 05:37:22;;;;;;;6.43;4.90;;;6.30;99.90;;;;;;5075600;28;20467;-63
2023/04/07 05:39:49;;;;;;;12.07;5.17;;;6.20;99.90;;;;;;5075691;28;20546;-63
2023/04/07 05:42:16;;;;;;;10.43;4.43;;;6.30;99.90;;;;;;5076096;28;20516;-62
2023/04/07 05:44:43;;;;;;;6.37;4.40;;;6.20;99.90;;;;;;5073968;28;20463;-63
2023/04/07 05:47:11;;;;;;;7.27;4.90;;;6.20;99.90;;;;;;5075607;28;20459;-63
2023/04/07 05:49:44;;;;;;;10.70;5.27;;;6.30;99.90;;;;;;5075717;28;20493;-63
2023/04/07 05:52:11;;;;;;;7.47;5.07;;;6.30;99.90;;;;;;5065842;28;20438;-64
2023/04/07 05:54:39;;;;;;;7.03;5.60;;;6.40;99.90;;;;;;5075612;28;20494;-63
2023/04/07 05:57:06;;;;;;;9.40;5.03;;;6.40;99.90;;;;;;5074983;28;20508;-63
2023/04/07 05:59:34;;;;;;;9.10;6.10;;;6.40;99.90;;;;;;5074904;28;20478;-63
2023/04/07 06:02:00;;;;;;;12.57;5.80;;;6.50;99.90;;;;;;5074785;28;20450;-64
2023/04/07 06:04:31;;;;;;;8.20;5.80;;;6.50;99.90;;;;;;5075047;28;20877;-63
2023/04/07 06:06:58;;;;;;;9.40;6.00;;;6.60;99.90;;;;;;5075449;28;20446;-63
2023/04/07 06:09:25;;;;;;;10.67;5.87;;;6.60;99.90;;;;;;5075026;28;20467;-63
2023/04/07 06:11:52;;;;;;;8.00;5.70;;;6.60;99.90;;;;;;5074476;28;20427;-63
2023/04/07 06:14:19;;;;;;;9.40;5.63;;;6.70;99.90;;;;;;5075240;28;20482;-65
2023/04/07 06:16:46;;;;;;;8.63;5.13;;;6.80;99.90;;;;;;5063431;28;20453;-64
2023/04/07 06:19:13;;;;;;;10.90;6.40;;;6.90;99.90;;;;;;5075017;28;20597;-63
2023/04/07 06:21:41;;;;;;;6.83;5.23;;;7.00;99.90;;;;;;5075104;28;20424;-63
2023/04/07 06:24:08;;;;;;;11.00;5.20;;;7.00;99.90;;;;;;5074516;28;20444;-63
2023/04/07 06:26:35;;;;;;;10.33;5.80;;;7.00;99.90;;;;;;5074694;28;20490;-62
2023/04/07 06:29:02;;;;;;;13.67;6.17;;;7.00;99.90;;;;;;5066178;28;20435;-63
2023/04/07 06:31:29;;;;;;;11.10;5.80;;;7.00;99.90;;;;;;5074174;28;20424;-63
2023/04/07 06:33:56;;;;;;;13.63;7.03;;;7.00;99.90;;;;;;5074660;28;20447;-61
2023/04/07 06:36:23;;;;;;;10.93;5.10;;;6.90;99.90;;;;;;5075350;28;20443;-65
2023/04/07 06:38:52;;;;;;;12.67;5.87;;;6.90;99.90;;;;;;5063865;28;20482;-64
2023/04/07 06:41:19;;;;;;;7.63;5.30;;;6.90;99.90;;;;;;5075058;28;20442;-64
2023/04/07 06:43:50;;;;;;;11.23;5.67;;;6.90;99.90;;;;;;5075954;28;20443;-64
2023/04/07 06:46:17;;;;;;;10.37;5.00;;;6.80;99.90;;;;;;5067192;28;20451;-66
2023/04/07 06:48:44;;;;;;;8.97;6.53;;;6.90;99.90;;;;;;5075037;28;20435;-62
2023/04/07 06:51:11;;;;;;;8.97;5.77;;;6.90;99.90;;;;;;5077139;28;20443;-62
2023/04/07 06:53:38;;;;;;;9.77;6.03;;;6.90;99.90;;;;;;5067048;28;20436;-64
2023/04/07 06:56:07;;;;;;;10.33;5.97;;;6.90;99.90;;;;;;5077571;28;20464;-63
2023/04/07 06:58:36;;;;;;;9.07;6.70;;;7.00;99.90;;;;;;5078209;28;20434;-67
2023/04/07 07:01:03;;;;;;;10.20;5.30;;;7.00;99.90;;;;;;5077375;28;20448;-65
2023/04/07 07:03:31;;;;;;;9.83;5.70;;;7.10;99.90;;;;;;5077923;28;20473;-64
2023/04/07 07:05:58;;;;;;;10.03;6.20;;;7.10;99.90;;;;;;5076059;28;20462;-64
2023/04/07 07:08:26;;;;;;;10.37;6.77;;;7.10;99.90;;;;;;5077881;28;20450;-62
2023/04/07 07:10:53;;;;;;;8.27;5.63;;;7.20;99.90;;;;;;5077278;28;20451;-63
2023/04/07 07:13:23;;;;;;;8.50;5.50;;;7.30;99.90;;;;;;5076645;28;20451;-70
2023/04/07 07:15:50;;;;;;;9.83;6.47;;;7.40;99.90;;;;;;5076453;28;20477;-66
2023/04/07 07:18:18;;;;;;;8.63;5.70;;;7.50;99.90;;;;;;5076290;28;20601;-64
2023/04/07 07:20:45;;;;;;;18.00;6.23;;;7.60;99.90;;;;;;5076644;28;20554;-66
2023/04/07 07:23:12;;;;;;;11.03;7.13;;;7.70;99.90;;;;;;5076401;28;20434;-63
2023/04/07 07:25:39;;;;;;;8.40;5.63;;;7.80;99.90;;;;;;5076532;28;20459;-63
2023/04/07 07:28:06;;;;;;;11.60;6.40;;;7.90;99.90;;;;;;5076904;28;20428;-66
2023/04/07 07:30:34;;;;;;;17.73;6.57;;;8.00;99.90;;;;;;5089430;22;20501;-61
2023/04/07 07:33:22;;;;;;;10.30;6.83;;;8.60;99.90;;;;;;5074507;28;20447;-61
2023/04/07 07:35:49;;;;;;;7.53;6.03;;;7.40;99.90;;;;;;5074772;28;20463;-63
2023/04/07 07:38:16;;;;;;;10.80;6.63;;;8.30;99.90;;;;;;5075778;28;20415;-58
2023/04/07 07:40:43;;;;;;;8.80;6.83;;;8.30;99.90;;;;;;5079315;28;20487;-62
2023/04/07 07:43:10;;;;;;;12.90;5.90;;;8.30;99.90;;;;;;5078977;28;20427;-59
2023/04/07 07:45:41;;;;;;;10.70;5.70;;;8.40;99.90;;;;;;5079010;28;20471;-58
2023/04/07 07:48:08;;;;;;;8.03;4.83;;;8.50;99.90;;;;;;5079433;28;20435;-59
2023/04/07 07:50:35;;;;;;;11.77;5.20;;;8.50;99.90;;;;;;5078728;28;20435;-61
2023/04/07 07:53:01;;;;;;;7.20;4.60;;;8.50;99.90;;;;;;5079308;28;20423;-60
2023/04/07 07:55:28;;;;;;;6.87;5.07;;;8.40;99.90;;;;;;5079125;28;20512;-59
2023/04/07 07:58:00;;;;;;;9.03;6.23;;;8.40;99.90;;;;;;5079709;28;20438;-61
2023/04/07 08:00:27;;;;;;;8.40;6.67;;;8.40;99.90;;;;;;5079264;28;20483;-62
2023/04/07 08:02:55;;;;;;;9.60;5.57;;;8.40;99.90;;;;;;5078925;28;20439;-59
2023/04/07 08:05:22;;;;;;;8.27;5.23;;;8.50;99.80;;;;;;5079603;28;20431;-60
2023/04/07 08:07:54;;;;;;;12.00;5.30;;;8.50;98.70;;;;;;5078777;28;20439;-64
2023/04/07 08:10:23;;;;;;;9.37;5.33;;;8.60;98.30;;;;;;5078728;28;20504;-55
2023/04/07 08:12:50;;;;;;;7.70;5.03;;;8.70;97.80;;;;;;5078838;28;20445;-62
2023/04/07 08:15:17;;;;;;;8.10;4.70;;;8.70;97.70;;;;;;5078729;28;20454;-59
2023/04/07 08:17:44;;;;;;;7.33;4.70;;;8.80;97.30;;;;;;5078340;28;20478;-61
2023/04/07 08:20:15;;;;;;;10.67;5.20;;;9.00;96.60;;;;;;5078074;28;20466;-61
2023/04/07 08:22:42;;;;;;;10.50;4.70;;;9.20;95.50;;;;;;5077566;28;20477;-60
2023/04/07 08:25:14;;;;;;;10.40;4.67;;;9.40;94.10;;;;;;5077505;28;20445;-59
2023/04/07 08:27:43;;;;;;;6.43;3.63;;;10.00;92.50;;;;;;5076346;28;20468;-61
2023/04/07 08:30:10;;;;;;;5.60;4.57;;;10.90;86.30;;;;;;5077359;28;20533;-60
2023/04/07 08:32:44;;;;;;;11.77;4.17;;;11.40;79.00;;;;;;5077129;28;20478;-60
2023/04/07 08:35:15;;;;;;;8.10;4.50;;;11.50;75.40;;;;;;5077322;28;20427;-61
2023/04/07 08:37:43;;;;;;;6.63;3.83;;;11.50;74.10;;;;;;5077034;28;20447;-63
2023/04/07 08:40:11;;;;;;;9.17;3.90;;;11.40;72.00;;;;;;5077824;28;20529;-61
2023/04/07 08:42:47;;;;;;;5.80;3.97;;;11.20;73.40;;;;;;5078748;28;20474;-58
2023/04/07 08:45:16;;;;;;;17.03;5.30;;;11.10;72.50;;;;;;5078364;28;20443;-57
2023/04/07 08:47:43;;;;;;;6.10;4.33;;;11.00;73.20;;;;;;5077944;28;20478;-58
2023/04/07 08:50:14;;;;;;;7.83;3.93;;;10.80;73.40;;;;;;5077219;28;20439;-62
2023/04/07 08:52:46;;;;;;;5.83;4.30;;;10.70;72.80;;;;;;5077364;28;20471;-61
2023/04/07 08:55:13;;;;;;;8.80;4.93;;;10.40;72.90;;;;;;5076667;28;20438;-60
2023/04/07 08:57:41;;;;;;;7.37;4.30;;;10.10;74.50;;;;;;5077368;28;20739;-60
2023/04/07 09:00:09;;;;;;;5.60;3.27;;;10.00;73.30;;;;;;5077044;28;20483;-60
2023/04/07 09:02:37;;;;;;;6.93;3.57;;;9.90;73.40;;;;;;5076523;28;20471;-62
2023/04/07 09:05:06;;;;;;;6.03;4.20;;;9.90;72.80;;;;;;5077299;28;20454;-61
2023/04/07 09:07:36;;;;;;;7.03;3.80;;;9.80;72.30;;;;;;5077696;28;20475;-60
2023/04/07 09:10:03;;;;;;;8.17;4.10;;;9.70;72.50;;;;;;5078419;28;20450;-56
2023/04/07 09:12:31;;;;;;;5.27;4.07;;;9.60;73.10;;;;;;5078231;28;20468;-59
2023/04/07 09:14:59;;;;;;;10.33;4.53;;;9.50;74.10;;;;;;5078405;28;20435;-57
2023/04/07 09:17:27;;;;;;;6.73;4.20;;;9.40;73.90;;;;;;5078514;28;20456;-61
2023/04/07 09:19:56;;;;;;;7.97;4.77;;;9.30;73.80;;;;;;5078568;28;20463;-59
2023/04/07 09:22:38;;;;;;;5.87;3.57;;;9.30;71.00;;;;;;5078411;28;20476;-57
2023/04/07 09:25:16;;;;;;;6.23;3.40;;;9.20;69.60;;;;;;5078101;28;20431;-61
2023/04/07 09:28:03;;;;;;;8.80;3.37;;;9.10;69.20;;;;;;5078597;28;20474;-58
2023/04/07 09:30:32;;;;;;;4.33;2.93;;;9.00;69.60;;;;;;5077398;28;20444;-61
2023/04/07 09:33:00;;;;;;;3.70;2.60;;;9.00;68.50;;;;;;5076009;28;20451;-59
2023/04/07 09:35:27;;;;;;;6.93;3.80;;;9.00;68.90;;;;;;5076670;28;20432;-61
2023/04/07 09:38:07;;;;;;;6.03;4.00;;;9.00;70.00;;;;;;5077490;28;20486;-59
2023/04/07 09:40:37;;;;;;;9.23;3.83;;;9.00;69.20;;;;;;5076561;28;20470;-59
2023/04/07 09:43:05;;;;;;;6.97;3.33;;;9.00;70.40;;;;;;5076360;28;20467;-59
2023/04/07 09:45:33;;;;;;;6.40;3.30;;;9.00;71.00;;;;;;5076585;28;20495;-58
2023/04/07 09:48:18;;;;;;;5.27;3.47;;;9.00;70.80;;;;;;5076890;28;20467;-59
2023/04/07 09:50:50;;;;;;;6.43;4.03;;;9.00;72.60;;;;;;5076756;28;20431;-58
2023/04/07 09:53:19;;;;;;;4.63;3.90;;;9.00;73.10;;;;;;5076340;28;20554;-61
2023/04/07 09:55:46;;;;;;;4.43;3.33;;;9.00;74.60;;;;;;5075500;28;20447;-63
2023/04/07 09:58:14;;;;;;;7.60;3.70;;;9.00;75.70;;;;;;5075352;28;20490;-60
2023/04/07 10:00:45;;;;;;;4.47;3.23;;;9.00;77.30;;;;;;5075166;28;20502;-61
2023/04/07 10:03:13;;;;;;;5.57;3.53;;;8.90;76.90;;;;;;5075605;28;20526;-60
2023/04/07 10:05:40;;;;;;;9.40;4.77;;;8.90;76.40;;;;;;5075795;28;20470;-62
2023/04/07 10:08:07;;;;;;;7.43;3.87;;;9.00;77.00;;;;;;5075709;28;20479;-61
2023/04/07 10:10:36;;;;;;;5.30;3.77;;;8.90;76.80;;;;;;5075610;28;20431;-62
2023/04/07 10:13:05;;;;;;;7.70;3.73;;;8.90;75.20;;;;;;5075504;28;20451;-61
2023/04/07 10:15:32;;;;;;;8.33;3.60;;;8.80;74.70;;;;;;5075438;28;20439;-61
2023/04/07 10:18:00;;;;;;;3.87;3.13;;;8.80;74.60;;;;;;5075623;28;20498;-61
2023/04/07 10:20:28;;;;;;;6.60;3.80;;;8.70;75.50;;;;;;5075684;28;20463;-61
2023/04/07 10:23:01;;;;;;;5.33;2.60;;;8.60;76.20;;;;;;5075548;28;20497;-61
2023/04/07 10:25:29;;;;;;;8.33;3.83;;;8.50;76.70;;;;;;5075512;28;20435;-61
2023/04/07 10:28:00;;;;;;;8.10;3.70;;;8.50;78.30;;;;;;5075102;28;20490;-62
2023/04/07 10:30:40;;;;;;;7.43;3.40;;;8.50;78.70;;;;;;5075282;28;20479;-62
2023/04/07 10:33:06;;;;;;;7.30;3.37;;;8.50;79.90;;;;;;5075634;28;20474;-63
2023/04/07 10:36:06;;;;;;;4.33;2.63;;;8.40;80.50;;;;;;5075443;28;20456;-60
2023/04/07 10:38:35;;;;;;;7.63;2.90;;;8.40;81.00;;;;;;5075341;28;20474;-61
2023/04/07 10:41:33;;;;;;;5.03;2.50;;;8.40;81.20;;;;;;5075312;28;20486;-61
2023/04/07 10:44:02;;;;;;;3.10;2.10;;;8.60;81.80;;;;;;5075246;28;20472;-61
2023/04/07 10:47:02;;;;;;;7.57;3.40;;;8.60;82.70;;;;;;5074979;28;20427;-62
2023/04/07 10:49:33;;;;;;;5.60;3.43;;;8.70;83.80;;;;;;5075093;28;20531;-61
2023/04/07 10:52:23;;;;;;;3.30;2.80;;;8.90;84.60;;;;;;5075022;28;20470;-62
2023/04/07 10:55:30;;;;;;;6.77;3.07;;;9.00;84.30;;;;;;5075806;28;20451;-62
2023/04/07 10:58:17;;;;;;;4.20;2.40;;;9.00;84.90;;;;;;5070171;28;20474;-61
2023/04/07 11:01:20;;;;;;;3.77;2.33;;;9.00;86.40;;;;;;5074826;28;20593;-62
2023/04/07 11:03:57;;;;;;;5.20;2.83;;;9.10;86.40;;;;;;5075319;28;20530;-59
2023/04/07 11:06:26;;;;;;;2.77;2.30;;;9.10;89.90;;;;;;5075232;28;20451;-60
2023/04/07 11:08:54;;;;;;;4.50;2.87;;;9.00;91.80;;;;;;5075606;28;20466;-62
2023/04/07 11:11:38;;;;;;;4.47;3.03;;;9.00;93.50;;;;;;5075449;28;20450;-61
2023/04/07 11:14:05;;;;;;;5.70;3.10;;;9.00;96.50;;;;;;5076709;28;20478;-61
2023/04/07 11:16:41;;;;;;;7.37;4.30;;;9.00;99.90;;;;;;5076705;28;20423;-62
2023/04/07 11:19:08;;;;;;;5.30;3.37;;;8.90;99.90;;;;;;5076150;28;20757;-59
2023/04/07 11:21:36;;;;;;;8.80;4.73;;;8.80;99.90;;;;;;5076592;28;20487;-62
2023/04/07 11:24:03;;;;;;;6.90;3.70;;;8.90;99.90;;;;;;5075815;28;20458;-62
2023/04/07 11:26:36;;;;;;;5.67;3.27;;;8.80;99.90;;;;;;5075206;28;20448;-62
2023/04/07 11:29:09;;;;;;;6.10;3.90;;;8.80;99.90;;;;;;5075309;28;20451;-61
2023/04/07 11:31:38;;;;;;;9.47;4.97;;;8.80;99.90;;;;;;5074914;28;20498;-59
2023/04/07 11:34:07;;;;;;;7.27;4.37;;;8.80;99.90;;;;;;5075495;28;20451;-62
2023/04/07 11:36:35;;;;;;;11.67;5.37;;;8.80;99.90;;;;;;5075153;28;20439;-60
2023/04/07 11:39:02;;;;;;;6.80;4.37;;;8.80;99.90;;;;;;5074239;28;20455;-61
2023/04/07 11:41:31;;;;;;;11.23;6.47;;;8.70;99.90;;;;;;5074051;28;20474;-60
2023/04/07 11:44:08;;;;;;;9.73;6.70;;;8.70;99.90;;;;;;5074682;28;20439;-61
2023/04/07 11:46:52;;;;;;;7.43;5.80;;;8.70;99.90;;;;;;5074591;28;20472;-59
2023/04/07 11:49:19;;;;;;;12.00;7.00;;;8.70;99.90;;;;;;5074597;28;20474;-62
2023/04/07 11:51:48;;;;;;;12.27;7.40;;;8.80;99.90;;;;;;5074422;28;20439;-63
2023/04/07 11:54:15;;;;;;;11.67;6.97;;;8.80;99.90;;;;;;5074726;28;20483;-62
2023/04/07 11:56:44;;;;;;;12.00;6.77;;;8.80;99.90;;;;;;5074501;28;20435;-61
2023/04/07 11:59:21;;;;;;;10.90;7.07;;;8.80;99.90;;;;;;5074269;28;20804;-62
2023/04/07 12:01:52;;;;;;;10.70;7.70;;;8.80;99.90;;;;;;5073861;28;20474;-61
2023/04/07 12:04:19;;;;;;;9.73;6.60;;;8.90;99.90;;;;;;5074241;28;20479;-62
2023/04/07 12:06:47;;;;;;;8.80;6.20;;;8.90;99.90;;;;;;5074105;28;20447;-61
2023/04/07 12:09:31;;;;;;;10.00;6.33;;;8.80;99.90;;;;;;5073953;28;20439;-62
2023/04/07 12:11:58;;;;;;;7.53;5.90;;;8.80;99.90;;;;;;5073886;28;20465;-61
2023/04/07 12:14:26;;;;;;;11.70;6.20;;;8.80;99.90;;;;;;5073705;28;20769;-57
2023/04/07 12:16:57;;;;;;;7.83;5.83;;;8.80;99.90;;;;;;5074287;28;20462;-61
2023/04/07 12:19:26;;;;;;;11.27;6.67;;;8.80;99.90;;;;;;5074099;28;20728;-61
2023/04/07 12:21:54;;;;;;;8.53;6.50;;;8.60;99.90;;;;;;5074445;28;20471;-59
2023/04/07 12:24:24;;;;;;;14.97;7.37;;;8.60;99.90;;;;;;5074426;28;20438;-63
2023/04/07 12:26:51;;;;;;;6.47;5.00;;;8.50;99.90;;;;;;5078609;28;20403;-61
2023/04/07 12:29:20;;;;;;;7.80;5.00;;;8.40;99.90;;;;;;5078214;28;20535;-62
2023/04/07 12:31:49;;;;;;;7.80;4.90;;;8.30;99.90;;;;;;5077102;28;20430;-62
2023/04/07 12:34:17;;;;;;;7.50;4.07;;;8.30;99.90;;;;;;5077755;28;20439;-59
2023/04/07 12:36:44;;;;;;;9.20;4.47;;;8.20;99.90;;;;;;5077086;28;20443;-61
2023/04/07 12:39:11;;;;;;;5.70;3.87;;;8.10;99.90;;;;;;5077718;28;20482;-61
2023/04/07 12:41:38;;;;;;;6.33;4.27;;;8.10;99.90;;;;;;5077714;28;20458;-63
2023/04/07 12:44:08;;;;;;;6.97;5.07;;;8.10;99.90;;;;;;5077187;28;20447;-62
2023/04/07 12:46:35;;;;;;;7.90;5.27;;;8.10;99.90;;;;;;5077971;28;20463;-59
2023/04/07 12:49:02;;;;;;;7.57;5.07;;;8.10;99.90;;;;;;5077050;28;20797;-61
2023/04/07 12:51:32;;;;;;;11.67;5.73;;;8.10;99.90;;;;;;5076620;28;20531;-61
2023/04/07 12:54:00;;;;;;;10.27;5.23;;;8.10;99.90;;;;;;5077240;28;20488;-59
2023/04/07 12:56:27;;;;;;;9.53;5.17;;;8.10;99.90;;;;;;5076790;28;20447;-61
2023/04/07 12:58:55;;;;;;;6.87;3.77;;;8.00;99.90;;;;;;5076663;28;20443;-61
2023/04/07 13:01:22;;;;;;;10.13;4.60;;;8.00;99.90;;;;;;5076772;28;20491;-59
2023/04/07 13:03:48;;;;;;;9.77;5.30;;;8.00;99.90;;;;;;5077234;28;20431;-62